createdAt,value
2023-02-11T00:02:17.836Z,91.60
2023-02-11T00:04:45.573Z,92.00
2023-02-11T00:07:13.290Z,92.10
2023-02-11T00:09:41.017Z,92.30
2023-02-11T00:12:08.724Z,92.30
2023-02-11T00:14:36.440Z,92.40
2023-02-11T00:17:05.478Z,92.30
2023-02-11T00:19:33.239Z,92.30
2023-02-11T00:22:00.922Z,92.30
2023-02-11T00:24:30.008Z,92.60
2023-02-11T00:26:57.684Z,92.70
2023-02-11T00:29:25.433Z,92.70
2023-02-11T00:31:53.217Z,92.60
2023-02-11T00:34:22.322Z,92.30
2023-02-11T00:36:50.276Z,92.20
2023-02-11T00:39:17.964Z,92.30
2023-02-11T00:41:45.690Z,92.20
2023-02-11T00:44:13.836Z,92.10
2023-02-11T00:46:41.565Z,92.00
2023-02-11T00:49:11.904Z,92.00
2023-02-11T00:51:41.111Z,92.20
2023-02-11T00:54:08.965Z,92.20
2023-02-11T00:56:37.212Z,92.30
2023-02-11T00:59:04.904Z,92.30
2023-02-11T01:01:32.627Z,92.30
2023-02-11T01:04:00.440Z,92.30
2023-02-11T01:06:28.204Z,92.30
2023-02-11T01:08:57.381Z,92.50
2023-02-11T01:11:25.161Z,92.70
2023-02-11T01:13:52.982Z,92.70
2023-02-11T01:16:22.336Z,92.80
2023-02-11T01:18:50.473Z,92.90
2023-02-11T01:21:18.848Z,92.60
2023-02-11T01:23:46.557Z,92.40
2023-02-11T01:26:15.610Z,92.30
2023-02-11T01:28:43.597Z,92.50
2023-02-11T01:31:11.508Z,92.60
2023-02-11T01:33:39.419Z,92.70
2023-02-11T01:36:08.638Z,92.70
2023-02-11T01:38:36.634Z,92.70
2023-02-11T01:41:06.621Z,92.80
2023-02-11T01:43:37.871Z,92.80
2023-02-11T01:46:18.669Z,92.50
2023-02-11T01:48:51.133Z,92.40
2023-02-11T01:51:25.901Z,92.20
2023-02-11T01:54:08.996Z,92.00
2023-02-11T01:56:54.652Z,91.60
2023-02-11T01:59:29.777Z,91.70
2023-02-11T02:02:00.615Z,91.50
2023-02-11T02:04:32.406Z,91.30
2023-02-11T02:07:07.307Z,91.40
2023-02-11T02:09:41.085Z,91.40
2023-02-11T02:12:11.131Z,91.70
2023-02-11T02:14:41.462Z,91.70
2023-02-11T02:17:12.723Z,91.90
2023-02-11T02:20:03.558Z,91.90
2023-02-11T02:22:58.585Z,92.40
2023-02-11T02:25:47.875Z,92.70
2023-02-11T02:28:37.140Z,93.10
2023-02-11T02:31:27.945Z,93.10
2023-02-11T02:34:03.360Z,92.90
2023-02-11T02:36:37.834Z,92.60
2023-02-11T02:39:12.880Z,92.50
2023-02-11T02:41:41.815Z,92.30
2023-02-11T02:44:10.258Z,91.90
2023-02-11T02:46:38.267Z,91.70
2023-02-11T02:49:13.576Z,92.00
2023-02-11T02:52:05.223Z,92.00
2023-02-11T02:54:45.757Z,92.20
2023-02-11T02:57:29.742Z,92.30
2023-02-11T03:00:09.880Z,92.30
2023-02-11T03:02:45.994Z,92.40
2023-02-11T03:05:19.392Z,92.30
2023-02-11T03:07:53.236Z,92.30
2023-02-11T03:10:26.109Z,92.40
2023-02-11T03:12:56.443Z,92.50
2023-02-11T03:15:26.886Z,92.60
2023-02-11T03:17:59.186Z,92.60
2023-02-11T03:20:30.583Z,92.80
2023-02-11T03:23:03.634Z,92.90
2023-02-11T03:25:38.180Z,93.10
2023-02-11T03:28:14.356Z,93.20
2023-02-11T03:30:47.951Z,92.90
2023-02-11T03:33:23.238Z,92.90
2023-02-11T03:35:57.323Z,92.90
2023-02-11T03:38:30.501Z,93.10
2023-02-11T03:40:59.803Z,93.10
2023-02-11T03:43:32.204Z,92.90
2023-02-11T03:46:01.166Z,93.00
2023-02-11T03:48:33.788Z,92.90
2023-02-11T03:51:06.856Z,93.00
2023-02-11T03:53:35.160Z,92.90
2023-02-11T03:56:07.109Z,92.70
2023-02-11T03:58:34.789Z,92.40
2023-02-11T04:01:02.737Z,92.20
2023-02-11T04:03:32.778Z,92.00
2023-02-11T04:06:01.949Z,92.30
2023-02-11T04:08:29.898Z,92.50
2023-02-11T04:10:57.590Z,92.60
2023-02-11T04:13:25.289Z,92.60
2023-02-11T04:15:53.358Z,92.40
2023-02-11T04:18:21.328Z,92.30
2023-02-11T04:20:49.843Z,92.20
2023-02-11T04:23:18.876Z,92.60
2023-02-11T04:25:46.627Z,92.50
2023-02-11T04:28:14.542Z,92.90
2023-02-11T04:30:42.411Z,93.10
2023-02-11T04:33:10.121Z,93.40
2023-02-11T04:35:37.786Z,93.30
2023-02-11T04:38:05.484Z,93.10
2023-02-11T04:40:34.558Z,92.70
2023-02-11T04:43:02.289Z,92.30
2023-02-11T04:45:29.929Z,92.00
2023-02-11T04:47:57.661Z,91.70
2023-02-11T04:50:25.492Z,91.70
2023-02-11T04:52:53.164Z,91.40
2023-02-11T04:55:20.888Z,90.90
2023-02-11T04:57:49.858Z,90.90
2023-02-11T05:00:18.050Z,90.70
2023-02-11T05:02:45.785Z,90.70
2023-02-11T05:05:13.470Z,90.70
2023-02-11T05:07:41.122Z,90.80
2023-02-11T05:10:09.137Z,90.70
2023-02-11T05:12:36.873Z,90.70
2023-02-11T05:15:06.747Z,91.00
2023-02-11T05:17:34.472Z,90.90
2023-02-11T05:20:02.170Z,91.10
2023-02-11T05:22:29.869Z,91.10
2023-02-11T05:24:57.565Z,91.10
2023-02-11T05:27:25.248Z,90.90
2023-02-11T05:29:52.938Z,90.90
2023-02-11T05:32:21.942Z,90.80
2023-02-11T05:34:49.676Z,90.70
2023-02-11T05:37:17.563Z,90.60
2023-02-11T05:39:45.306Z,90.60
2023-02-11T05:42:13.016Z,90.60
2023-02-11T05:44:40.688Z,90.40
2023-02-11T05:47:09.170Z,90.30
2023-02-11T05:49:38.162Z,90.20
2023-02-11T05:52:06.184Z,90.10
2023-02-11T05:54:33.904Z,90.00
2023-02-11T05:57:01.609Z,89.90
2023-02-11T05:59:29.304Z,90.00
2023-02-11T06:01:56.980Z,89.80
2023-02-11T06:04:29.223Z,89.70
2023-02-11T06:06:58.412Z,89.60
2023-02-11T06:09:26.395Z,89.70
2023-02-11T06:11:54.148Z,90.00
2023-02-11T06:14:21.835Z,90.40
2023-02-11T06:16:49.521Z,90.50
2023-02-11T06:19:17.238Z,90.40
2023-02-11T06:21:44.943Z,90.00
2023-02-11T06:24:13.997Z,89.50
2023-02-11T06:26:41.879Z,89.80
2023-02-11T06:29:09.884Z,89.90
2023-02-11T06:31:38.865Z,89.90
2023-02-11T06:34:07.025Z,89.80
2023-02-11T06:36:35.079Z,89.70
2023-02-11T06:39:02.767Z,89.70
2023-02-11T06:41:32.048Z,90.10
2023-02-11T06:43:59.796Z,90.20
2023-02-11T06:46:27.552Z,90.40
2023-02-11T06:48:55.340Z,90.40
2023-02-11T06:51:23.281Z,90.60
2023-02-11T06:53:50.974Z,90.50
2023-02-11T06:56:21.067Z,90.40
2023-02-11T06:58:54.532Z,90.30
2023-02-11T07:01:23.182Z,90.20
2023-02-11T07:03:51.497Z,90.00
2023-02-11T07:06:21.754Z,89.30
2023-02-11T07:08:49.954Z,89.30
2023-02-11T07:11:20.614Z,89.20
2023-02-11T07:13:50.076Z,89.10
2023-02-11T07:16:19.288Z,88.60
2023-02-11T07:18:48.458Z,88.70
2023-02-11T07:21:18.268Z,89.20
2023-02-11T07:23:46.358Z,89.30
2023-02-11T07:26:15.956Z,89.30
2023-02-11T07:28:44.349Z,88.80
2023-02-11T07:31:15.147Z,89.40
2023-02-11T07:33:45.700Z,89.70
2023-02-11T07:36:14.804Z,89.90
2023-02-11T07:38:43.248Z,89.90
2023-02-11T07:41:13.111Z,90.10
2023-02-11T07:43:41.799Z,90.10
2023-02-11T07:46:13.399Z,90.40
2023-02-11T07:48:41.476Z,90.20
2023-02-11T07:51:11.807Z,90.10
2023-02-11T07:53:39.571Z,90.10
2023-02-11T07:56:08.912Z,90.00
2023-02-11T07:58:37.246Z,90.40
2023-02-11T08:01:06.919Z,90.30
2023-02-11T08:03:36.703Z,90.50
2023-02-11T08:06:05.156Z,90.30
2023-02-11T08:08:32.931Z,90.00
2023-02-11T08:11:05.948Z,89.40
2023-02-11T08:13:33.638Z,89.00
2023-02-11T08:16:01.629Z,88.80
2023-02-11T08:18:29.348Z,88.30
2023-02-11T08:20:58.416Z,88.10
2023-02-11T08:23:26.169Z,87.50
2023-02-11T08:25:53.813Z,86.70
2023-02-11T08:28:21.524Z,86.30
2023-02-11T08:30:49.845Z,86.70
2023-02-11T08:33:17.727Z,86.70
2023-02-11T08:35:45.582Z,86.70
2023-02-11T08:38:14.671Z,86.20
2023-02-11T08:40:42.367Z,85.40
2023-02-11T08:43:10.038Z,85.20
2023-02-11T08:45:38.458Z,85.20
2023-02-11T08:48:06.274Z,84.60
2023-02-11T08:50:34.208Z,83.90
2023-02-11T08:53:02.199Z,84.00
2023-02-11T08:55:31.484Z,83.90
2023-02-11T08:57:59.175Z,84.00
2023-02-11T09:00:27.179Z,84.00
2023-02-11T09:02:55.199Z,81.60
2023-02-11T09:05:23.592Z,81.00
2023-02-11T09:07:51.259Z,78.90
2023-02-11T09:10:19.109Z,76.40
2023-02-11T09:12:48.153Z,75.60
2023-02-11T09:15:15.883Z,74.50
2023-02-11T09:17:43.586Z,74.40
2023-02-11T09:20:11.816Z,74.10
2023-02-11T09:22:39.566Z,74.20
2023-02-11T09:25:07.709Z,73.30
2023-02-11T09:27:35.476Z,72.10
2023-02-11T09:30:05.854Z,69.40
2023-02-11T09:32:33.709Z,67.00
2023-02-11T09:35:01.443Z,67.60
2023-02-11T09:37:29.297Z,64.50
2023-02-11T09:39:57.002Z,62.20
2023-02-11T09:42:40.899Z,61.40
2023-02-11T09:45:18.405Z,61.00
2023-02-11T09:47:50.827Z,59.70
2023-02-11T09:50:24.556Z,60.20
2023-02-11T09:52:56.471Z,61.10
2023-02-11T09:55:28.052Z,62.10
2023-02-11T09:57:57.696Z,62.80
2023-02-11T10:00:33.074Z,63.80
2023-02-11T10:03:22.098Z,63.00
2023-02-11T10:06:20.212Z,63.40
2023-02-11T10:09:00.006Z,64.70
2023-02-11T10:11:38.242Z,64.90
2023-02-11T10:14:23.070Z,66.10
2023-02-11T10:17:04.589Z,67.00
2023-02-11T10:19:46.996Z,67.20
2023-02-11T10:22:20.171Z,69.30
2023-02-11T10:24:52.739Z,70.20
2023-02-11T10:27:25.352Z,70.20
2023-02-11T10:29:57.178Z,68.90
2023-02-11T10:32:34.342Z,69.90
2023-02-11T10:35:04.690Z,70.20
2023-02-11T10:37:32.641Z,68.30
2023-02-11T10:40:00.454Z,68.90
2023-02-11T10:42:28.920Z,66.00
2023-02-11T10:45:01.464Z,67.20
2023-02-11T10:47:36.905Z,69.00
2023-02-11T10:50:21.979Z,66.90
2023-02-11T10:52:49.813Z,66.50
2023-02-11T10:55:21.640Z,67.00
2023-02-11T10:57:57.151Z,67.20
2023-02-11T11:00:37.825Z,67.40
2023-02-11T11:03:17.577Z,67.80
2023-02-11T11:05:50.268Z,68.10
2023-02-11T11:08:19.025Z,68.70
2023-02-11T11:10:49.497Z,70.10
2023-02-11T11:13:26.851Z,70.80
2023-02-11T11:16:23.364Z,70.30
2023-02-11T11:18:54.248Z,70.50
2023-02-11T11:21:25.058Z,71.70
2023-02-11T11:23:56.468Z,71.80
2023-02-11T11:26:26.154Z,72.50
2023-02-11T11:28:58.713Z,72.00
2023-02-11T11:31:30.875Z,72.20
2023-02-11T11:34:02.222Z,70.50
2023-02-11T11:36:40.123Z,70.10
2023-02-11T11:39:21.173Z,69.50
2023-02-11T11:41:55.355Z,70.30
2023-02-11T11:44:27.636Z,71.10
2023-02-11T11:47:09.332Z,71.50
2023-02-11T11:49:44.731Z,69.10
2023-02-11T11:52:20.394Z,66.20
2023-02-11T11:54:56.108Z,65.50
2023-02-11T11:57:28.554Z,64.90
2023-02-11T11:59:56.828Z,65.70
2023-02-11T12:02:42.855Z,66.40
2023-02-11T12:05:15.346Z,66.60
2023-02-11T12:07:54.640Z,67.50
2023-02-11T12:10:34.936Z,68.50
2023-02-11T12:13:17.338Z,69.00
2023-02-11T12:15:56.120Z,69.60
2023-02-11T12:18:38.672Z,69.70
2023-02-11T12:21:21.903Z,68.70
2023-02-11T12:24:07.299Z,69.10
2023-02-11T12:26:44.257Z,68.90
2023-02-11T12:29:23.364Z,68.90
2023-02-11T12:32:07.027Z,69.50
2023-02-11T12:34:45.387Z,70.10
2023-02-11T12:37:28.340Z,69.70
2023-02-11T12:40:09.884Z,70.30
2023-02-11T12:43:02.705Z,70.10
2023-02-11T12:45:43.391Z,71.00
2023-02-11T12:48:22.889Z,70.60
2023-02-11T12:50:59.058Z,71.60
2023-02-11T12:53:42.603Z,70.50
2023-02-11T12:56:16.925Z,70.90
2023-02-11T12:58:48.185Z,70.60
2023-02-11T13:01:20.656Z,70.60
2023-02-11T13:03:52.555Z,70.50
2023-02-11T13:06:23.569Z,71.00
2023-02-11T13:08:58.390Z,70.70
2023-02-11T13:11:30.031Z,70.70
2023-02-11T13:14:02.580Z,70.40
2023-02-11T13:16:36.523Z,70.60
2023-02-11T13:19:15.451Z,71.00
2023-02-11T13:21:55.844Z,70.60
2023-02-11T13:24:33.551Z,71.50
2023-02-11T13:27:11.025Z,71.30
2023-02-11T13:30:04.437Z,71.20
2023-02-11T13:33:02.113Z,70.40
2023-02-11T13:35:32.799Z,70.60
2023-02-11T13:38:02.449Z,70.70
2023-02-11T13:40:34.344Z,71.00
2023-02-11T13:43:05.097Z,70.60
2023-02-11T13:45:38.404Z,71.30
2023-02-11T13:48:09.901Z,71.30
2023-02-11T13:50:40.545Z,71.90
2023-02-11T13:53:10.152Z,71.60
2023-02-11T13:55:40.626Z,71.40
2023-02-11T13:58:39.857Z,71.60
2023-02-11T14:01:09.870Z,71.90
2023-02-11T14:03:53.379Z,71.20
2023-02-11T14:06:39.172Z,72.00
2023-02-11T14:09:31.175Z,72.00
2023-02-11T14:12:23.285Z,71.50
2023-02-11T14:15:20.857Z,71.60
2023-02-11T14:17:49.726Z,71.60
2023-02-11T14:20:35.622Z,71.90
2023-02-11T14:23:04.644Z,71.90
2023-02-11T14:25:32.779Z,72.00
2023-02-11T14:28:09.171Z,72.00
2023-02-11T14:30:50.244Z,72.30
2023-02-11T14:33:40.639Z,72.40
2023-02-11T14:36:19.798Z,72.40
2023-02-11T14:39:01.359Z,72.80
2023-02-11T14:41:32.692Z,72.70
2023-02-11T14:44:05.462Z,72.50
2023-02-11T14:46:34.217Z,72.80
2023-02-11T14:49:05.931Z,72.70
2023-02-11T14:51:37.719Z,73.10
2023-02-11T14:54:13.177Z,73.50
2023-02-11T14:56:42.142Z,73.60
2023-02-11T14:59:19.109Z,73.60
2023-02-11T15:01:50.736Z,73.60
2023-02-11T15:04:25.364Z,73.70
2023-02-11T15:06:54.454Z,73.60
2023-02-11T15:09:27.886Z,73.60
2023-02-11T15:11:58.512Z,72.60
2023-02-11T15:14:30.964Z,72.00
2023-02-11T15:17:01.516Z,71.90
2023-02-11T15:19:34.596Z,71.80
2023-02-11T15:22:04.991Z,72.40
2023-02-11T15:24:35.212Z,72.40
2023-02-11T15:27:05.063Z,72.50
2023-02-11T15:29:39.558Z,72.40
2023-02-11T15:32:13.865Z,72.90
2023-02-11T15:34:41.994Z,73.10
2023-02-11T15:37:14.057Z,72.70
2023-02-11T15:39:43.632Z,72.20
2023-02-11T15:42:20.734Z,72.20
2023-02-11T15:44:56.530Z,72.30
2023-02-11T15:47:24.664Z,72.50
2023-02-11T15:49:52.411Z,72.50
2023-02-11T15:52:27.257Z,72.60
2023-02-11T15:54:56.871Z,72.80
2023-02-11T15:57:24.762Z,72.90
2023-02-11T15:59:56.163Z,73.20
2023-02-11T16:02:31.155Z,73.90
2023-02-11T16:05:00.425Z,74.20
2023-02-11T16:07:44.964Z,74.00
2023-02-11T16:10:19.576Z,74.10
2023-02-11T16:12:59.760Z,74.40
2023-02-11T16:15:44.239Z,75.60
2023-02-11T16:18:37.355Z,76.60
2023-02-11T16:21:08.600Z,76.80
2023-02-11T16:23:39.251Z,77.20
2023-02-11T16:26:10.930Z,77.20
2023-02-11T16:28:39.201Z,77.60
2023-02-11T16:31:09.600Z,77.90
2023-02-11T16:33:37.356Z,78.20
2023-02-11T16:36:11.221Z,78.70
2023-02-11T16:38:38.932Z,79.00
2023-02-11T16:41:06.971Z,79.00
2023-02-11T16:43:34.747Z,79.10
2023-02-11T16:46:02.452Z,79.20
2023-02-11T16:48:31.848Z,79.50
2023-02-11T16:50:59.753Z,79.90
2023-02-11T16:53:27.504Z,80.30
2023-02-11T16:55:55.406Z,80.30
2023-02-11T16:58:23.046Z,80.20
2023-02-11T17:00:51.767Z,80.40
2023-02-11T17:03:28.112Z,80.60
2023-02-11T17:05:58.757Z,80.70
2023-02-11T17:08:26.559Z,80.70
2023-02-11T17:10:54.603Z,81.10
2023-02-11T17:13:22.549Z,81.40
2023-02-11T17:15:50.905Z,81.60
2023-02-11T17:18:18.823Z,82.30
2023-02-11T17:20:46.562Z,82.40
2023-02-11T17:23:16.713Z,82.40
2023-02-11T17:25:44.447Z,82.40
2023-02-11T17:28:13.654Z,82.90
2023-02-11T17:30:43.445Z,83.00
2023-02-11T17:33:11.161Z,83.10
2023-02-11T17:35:41.485Z,83.10
2023-02-11T17:38:09.356Z,83.30
2023-02-11T17:40:38.363Z,83.50
2023-02-11T17:43:06.055Z,83.60
2023-02-11T17:45:33.805Z,83.70
2023-02-11T17:48:01.551Z,84.00
2023-02-11T17:50:29.615Z,84.20
2023-02-11T17:52:57.801Z,84.30
2023-02-11T17:55:25.853Z,84.50
2023-02-11T17:57:55.360Z,84.50
2023-02-11T18:00:23.436Z,84.20
2023-02-11T18:02:51.191Z,84.10
2023-02-11T18:05:18.943Z,84.10
2023-02-11T18:07:47.895Z,84.30
2023-02-11T18:10:15.676Z,84.50
2023-02-11T18:12:43.433Z,84.70
2023-02-11T18:15:15.345Z,84.70
2023-02-11T18:17:43.403Z,84.40
2023-02-11T18:20:11.679Z,83.90
2023-02-11T18:22:40.876Z,83.70
2023-02-11T18:25:09.587Z,84.00
2023-02-11T18:27:37.381Z,83.90
2023-02-11T18:30:07.610Z,83.70
2023-02-11T18:32:36.645Z,83.00
2023-02-11T18:35:04.425Z,83.10
2023-02-11T18:37:32.170Z,83.10
2023-02-11T18:39:59.833Z,82.40
2023-02-11T18:42:27.911Z,82.50
2023-02-11T18:44:55.744Z,83.10
2023-02-11T18:47:23.416Z,82.30
2023-02-11T18:49:52.484Z,82.30
2023-02-11T18:52:20.149Z,83.20
2023-02-11T18:54:47.922Z,84.20
2023-02-11T18:57:15.601Z,84.40
2023-02-11T18:59:44.200Z,84.50
2023-02-11T19:02:12.099Z,84.90
2023-02-11T19:04:39.835Z,84.90
2023-02-11T19:07:09.332Z,85.20
2023-02-11T19:09:37.525Z,85.10
2023-02-11T19:12:07.888Z,84.70
2023-02-11T19:14:35.932Z,84.00
2023-02-11T19:17:06.584Z,83.60
2023-02-11T19:19:36.564Z,84.00
2023-02-11T19:22:08.489Z,84.50
2023-02-11T19:24:39.900Z,84.30
2023-02-11T19:27:07.575Z,84.00
2023-02-11T19:29:35.492Z,83.50
2023-02-11T19:32:03.540Z,82.90
2023-02-11T19:34:31.272Z,82.80
2023-02-11T19:37:00.697Z,82.70
2023-02-11T19:39:28.443Z,82.70
2023-02-11T19:41:57.429Z,82.60
2023-02-11T19:44:25.177Z,82.40
2023-02-11T19:46:54.620Z,82.00
2023-02-11T19:49:25.706Z,82.50
2023-02-11T19:51:55.123Z,82.80
2023-02-11T19:54:23.291Z,82.50
2023-02-11T19:56:50.964Z,82.50
2023-02-11T19:59:20.778Z,82.70
2023-02-11T20:01:49.052Z,83.00
2023-02-11T20:04:17.856Z,83.00
2023-02-11T20:06:47.949Z,83.10
2023-02-11T20:09:16.340Z,83.00
2023-02-11T20:11:44.275Z,83.40
2023-02-11T20:14:14.606Z,83.50
2023-02-11T20:16:49.018Z,83.40
2023-02-11T20:19:18.747Z,84.00
2023-02-11T20:21:47.929Z,84.40
2023-02-11T20:24:16.450Z,84.30
2023-02-11T20:26:45.076Z,84.00
2023-02-11T20:29:12.865Z,83.90
2023-02-11T20:31:40.714Z,83.40
2023-02-11T20:34:10.520Z,83.50
2023-02-11T20:36:40.094Z,84.20
2023-02-11T20:39:08.069Z,84.40
2023-02-11T20:41:39.544Z,84.70
2023-02-11T20:44:08.885Z,84.50
2023-02-11T20:46:39.824Z,84.10
2023-02-11T20:49:10.254Z,83.80
2023-02-11T20:51:38.217Z,83.60
2023-02-11T20:54:07.303Z,83.40
2023-02-11T20:56:37.509Z,83.40
2023-02-11T20:59:06.543Z,83.60
2023-02-11T21:01:36.086Z,84.60
2023-02-11T21:04:06.970Z,85.20
2023-02-11T21:06:39.068Z,85.30
2023-02-11T21:09:09.071Z,85.10
2023-02-11T21:11:36.984Z,85.50
2023-02-11T21:14:05.161Z,85.60
2023-02-11T21:16:33.208Z,85.70
2023-02-11T21:19:05.326Z,85.80
2023-02-11T21:21:35.239Z,86.20
2023-02-11T21:24:04.587Z,86.30
2023-02-11T21:26:32.377Z,86.30
2023-02-11T21:29:00.119Z,86.50
2023-02-11T21:31:31.044Z,86.40
2023-02-11T21:33:59.821Z,86.30
2023-02-11T21:36:29.251Z,85.70
2023-02-11T21:38:57.258Z,85.20
2023-02-11T21:41:27.225Z,85.20
2023-02-11T21:43:55.190Z,85.50
2023-02-11T21:46:23.503Z,84.90
2023-02-11T21:48:51.476Z,85.10
2023-02-11T21:51:21.667Z,85.80
2023-02-11T21:53:53.297Z,86.10
2023-02-11T21:56:21.338Z,85.70
2023-02-11T21:58:53.840Z,85.80
2023-02-11T22:01:24.116Z,85.60
2023-02-11T22:03:51.995Z,85.60
2023-02-11T22:06:22.035Z,85.20
2023-02-11T22:08:50.434Z,85.70
2023-02-11T22:11:18.536Z,85.40
2023-02-11T22:13:46.777Z,85.20
2023-02-11T22:16:17.754Z,84.90
2023-02-11T22:18:46.406Z,84.90
2023-02-11T22:21:16.987Z,84.30
2023-02-11T22:23:44.785Z,84.30
2023-02-11T22:26:14.873Z,84.30
2023-02-11T22:28:42.762Z,84.30
2023-02-11T22:31:13.545Z,84.30
2023-02-11T22:33:43.076Z,84.40
2023-02-11T22:36:16.625Z,84.40
2023-02-11T22:38:44.318Z,84.70
2023-02-11T22:41:12.821Z,84.30
2023-02-11T22:43:41.842Z,84.10
2023-02-11T22:46:11.583Z,83.80
2023-02-11T22:48:39.328Z,83.70
2023-02-11T22:51:10.075Z,83.70
2023-02-11T22:53:38.188Z,85.30
2023-02-11T22:56:07.861Z,86.00
2023-02-11T22:58:36.775Z,86.60
2023-02-11T23:01:05.483Z,87.10
2023-02-11T23:03:34.036Z,87.10
2023-02-11T23:06:02.585Z,86.90
2023-02-11T23:08:32.577Z,86.70
2023-02-11T23:11:05.733Z,86.50
2023-02-11T23:13:35.922Z,86.40
2023-02-11T23:16:05.772Z,86.30
2023-02-11T23:18:33.873Z,86.10
2023-02-11T23:21:05.588Z,85.80
2023-02-11T23:23:35.575Z,86.30
2023-02-11T23:26:04.116Z,86.60
2023-02-11T23:28:32.301Z,86.40
2023-02-11T23:31:00.049Z,86.40
2023-02-11T23:33:28.039Z,86.20
2023-02-11T23:35:56.160Z,85.70
2023-02-11T23:38:24.037Z,85.10
2023-02-11T23:40:53.070Z,85.00
2023-02-11T23:43:23.371Z,85.20
2023-02-11T23:45:52.798Z,85.40
2023-02-11T23:48:20.705Z,85.20
2023-02-11T23:50:48.406Z,85.10
2023-02-11T23:53:16.149Z,84.90
2023-02-11T23:55:44.619Z,85.10
2023-02-11T23:58:14.838Z,86.10
